sensor_id;sensor_type;location;lat;lon;timestamp;pressure;altitude;pressure_sealevel;temperature;humidity
71043;BME280;58696;52.134;5.500;2022-12-16T00:02:19;101154.94;;;-2.23;90.38
71043;BME280;58696;52.134;5.500;2022-12-16T00:04:50;101156.75;;;-2.25;90.09
71043;BME280;58696;52.134;5.500;2022-12-16T00:07:17;101151.09;;;-2.29;90.22
71043;BME280;58696;52.134;5.500;2022-12-16T00:09:47;101149.69;;;-2.33;90.36
71043;BME280;58696;52.134;5.500;2022-12-16T00:12:14;101155.06;;;-2.39;90.21
71043;BME280;58696;52.134;5.500;2022-12-16T00:14:42;101157.66;;;-2.41;90.52
71043;BME280;58696;52.134;5.500;2022-12-16T00:17:10;101162.97;;;-2.45;90.56
71043;BME280;58696;52.134;5.500;2022-12-16T00:19:36;101152.34;;;-2.50;90.49
71043;BME280;58696;52.134;5.500;2022-12-16T00:22:03;101159.38;;;-2.55;90.35
71043;BME280;58696;52.134;5.500;2022-12-16T00:24:32;101152.91;;;-2.59;90.45
71043;BME280;58696;52.134;5.500;2022-12-16T00:26:59;101155.44;;;-2.59;90.52
71043;BME280;58696;52.134;5.500;2022-12-16T00:29:26;101160.19;;;-2.69;90.32
71043;BME280;58696;52.134;5.500;2022-12-16T00:31:54;101168.34;;;-2.80;90.46
71043;BME280;58696;52.134;5.500;2022-12-16T00:34:27;101174.38;;;-2.82;90.67
71043;BME280;58696;52.134;5.500;2022-12-16T00:36:54;101175.16;;;-2.82;90.55
71043;BME280;58696;52.134;5.500;2022-12-16T00:39:20;101187.66;;;-2.80;90.32
71043;BME280;58696;52.134;5.500;2022-12-16T00:41:50;101177.50;;;-2.79;90.30
71043;BME280;58696;52.134;5.500;2022-12-16T00:44:17;101176.53;;;-2.76;90.40
71043;BME280;58696;52.134;5.500;2022-12-16T00:46:43;101173.09;;;-2.75;90.17
71043;BME280;58696;52.134;5.500;2022-12-16T00:49:11;101171.31;;;-2.73;90.18
71043;BME280;58696;52.134;5.500;2022-12-16T00:51:40;101177.13;;;-2.73;90.29
71043;BME280;58696;52.134;5.500;2022-12-16T00:54:06;101179.22;;;-2.65;90.51
71043;BME280;58696;52.134;5.500;2022-12-16T00:56:33;101172.94;;;-2.58;90.34
71043;BME280;58696;52.134;5.500;2022-12-16T00:59:01;101179.59;;;-2.57;90.63
71043;BME280;58696;52.134;5.500;2022-12-16T01:01:28;101186.16;;;-2.54;90.50
71043;BME280;58696;52.134;5.500;2022-12-16T01:03:56;101180.88;;;-2.50;90.63
71043;BME280;58696;52.134;5.500;2022-12-16T01:06:23;101179.06;;;-2.48;90.52
71043;BME280;58696;52.134;5.500;2022-12-16T01:08:56;101185.53;;;-2.44;90.62
71043;BME280;58696;52.134;5.500;2022-12-16T01:11:23;101185.44;;;-2.42;90.82
71043;BME280;58696;52.134;5.500;2022-12-16T01:13:50;101190.22;;;-2.38;90.83
71043;BME280;58696;52.134;5.500;2022-12-16T01:16:20;101194.88;;;-2.31;90.88
71043;BME280;58696;52.134;5.500;2022-12-16T01:18:47;101189.69;;;-2.28;90.70
71043;BME280;58696;52.134;5.500;2022-12-16T01:21:14;101205.28;;;-2.23;90.95
71043;BME280;58696;52.134;5.500;2022-12-16T01:23:42;101206.94;;;-2.22;90.78
71043;BME280;58696;52.134;5.500;2022-12-16T01:26:14;101211.69;;;-2.18;90.87
71043;BME280;58696;52.134;5.500;2022-12-16T01:28:41;101214.56;;;-2.09;90.99
71043;BME280;58696;52.134;5.500;2022-12-16T01:31:08;101210.97;;;-2.05;90.90
71043;BME280;58696;52.134;5.500;2022-12-16T01:33:36;101218.34;;;-2.02;90.90
71043;BME280;58696;52.134;5.500;2022-12-16T01:36:06;101230.75;;;-1.99;90.89
71043;BME280;58696;52.134;5.500;2022-12-16T01:38:35;101224.91;;;-2.00;90.87
71043;BME280;58696;52.134;5.500;2022-12-16T01:41:03;101234.25;;;-2.02;90.73
71043;BME280;58696;52.134;5.500;2022-12-16T01:43:36;101234.06;;;-1.99;90.94
71043;BME280;58696;52.134;5.500;2022-12-16T01:46:20;101234.78;;;-1.97;91.03
71043;BME280;58696;52.134;5.500;2022-12-16T01:48:56;101231.56;;;-1.99;90.84
71043;BME280;58696;52.134;5.500;2022-12-16T01:51:36;101242.53;;;-2.00;90.82
71043;BME280;58696;52.134;5.500;2022-12-16T01:54:18;101243.88;;;-1.94;90.74
71043;BME280;58696;52.134;5.500;2022-12-16T01:56:52;101250.53;;;-1.93;90.76
71043;BME280;58696;52.134;5.500;2022-12-16T01:59:24;101250.38;;;-1.90;90.91
71043;BME280;58696;52.134;5.500;2022-12-16T02:01:54;101254.56;;;-1.91;90.85
71043;BME280;58696;52.134;5.500;2022-12-16T02:04:22;101247.84;;;-1.90;90.84
71043;BME280;58696;52.134;5.500;2022-12-16T02:06:50;101259.59;;;-1.91;90.75
71043;BME280;58696;52.134;5.500;2022-12-16T02:09:17;101251.25;;;-1.91;90.71
71043;BME280;58696;52.134;5.500;2022-12-16T02:17:23;101253.13;;;-1.80;90.77
71043;BME280;58696;52.134;5.500;2022-12-16T02:20:08;101260.41;;;-1.76;90.95
71043;BME280;58696;52.134;5.500;2022-12-16T02:22:50;101262.66;;;-1.71;90.76
71043;BME280;58696;52.134;5.500;2022-12-16T02:25:57;101263.28;;;-1.68;90.88
71043;BME280;58696;52.134;5.500;2022-12-16T02:31:46;101263.03;;;-1.63;91.00
71043;BME280;58696;52.134;5.500;2022-12-16T02:37:09;101274.34;;;-1.56;90.93
71043;BME280;58696;52.134;5.500;2022-12-16T02:39:43;101284.41;;;-1.56;90.80
71043;BME280;58696;52.134;5.500;2022-12-16T02:42:22;101284.53;;;-1.57;90.84
71043;BME280;58696;52.134;5.500;2022-12-16T02:45:17;101289.25;;;-1.53;91.06
71043;BME280;58696;52.134;5.500;2022-12-16T02:47:45;101291.59;;;-1.50;90.88
71043;BME280;58696;52.134;5.500;2022-12-16T02:50:19;101286.47;;;-1.48;90.80
71043;BME280;58696;52.134;5.500;2022-12-16T02:52:47;101303.31;;;-1.49;91.06
71043;BME280;58696;52.134;5.500;2022-12-16T02:55:15;101299.88;;;-1.48;90.89
71043;BME280;58696;52.134;5.500;2022-12-16T02:57:55;101287.09;;;-1.45;90.96
71043;BME280;58696;52.134;5.500;2022-12-16T03:00:25;101291.22;;;-1.44;90.94
71043;BME280;58696;52.134;5.500;2022-12-16T03:03:10;101292.78;;;-1.41;91.16
71043;BME280;58696;52.134;5.500;2022-12-16T03:05:44;101299.59;;;-1.43;91.05
71043;BME280;58696;52.134;5.500;2022-12-16T03:08:18;101302.13;;;-1.43;90.98
71043;BME280;58696;52.134;5.500;2022-12-16T03:10:50;101313.00;;;-1.43;91.08
71043;BME280;58696;52.134;5.500;2022-12-16T03:13:28;101318.78;;;-1.41;91.07
71043;BME280;58696;52.134;5.500;2022-12-16T03:15:59;101315.34;;;-1.40;91.24
71043;BME280;58696;52.134;5.500;2022-12-16T03:18:27;101319.50;;;-1.39;90.86
71043;BME280;58696;52.134;5.500;2022-12-16T03:21:00;101328.88;;;-1.41;90.89
71043;BME280;58696;52.134;5.500;2022-12-16T03:23:38;101336.44;;;-1.41;90.97
71043;BME280;58696;52.134;5.500;2022-12-16T03:26:16;101334.63;;;-1.39;91.12
71043;BME280;58696;52.134;5.500;2022-12-16T03:29:01;101341.91;;;-1.34;91.00
71043;BME280;58696;52.134;5.500;2022-12-16T03:34:08;101347.13;;;-1.23;91.39
71043;BME280;58696;52.134;5.500;2022-12-16T03:36:39;101348.28;;;-1.14;91.52
71043;BME280;58696;52.134;5.500;2022-12-16T03:39:10;101345.38;;;-1.08;91.78
71043;BME280;58696;52.134;5.500;2022-12-16T03:41:38;101349.31;;;-1.04;92.00
71043;BME280;58696;52.134;5.500;2022-12-16T03:44:07;101357.50;;;-1.00;91.91
71043;BME280;58696;52.134;5.500;2022-12-16T03:46:37;101365.59;;;-0.95;92.01
71043;BME280;58696;52.134;5.500;2022-12-16T03:49:08;101367.03;;;-0.91;92.06
71043;BME280;58696;52.134;5.500;2022-12-16T03:51:35;101376.84;;;-0.87;92.31
71043;BME280;58696;52.134;5.500;2022-12-16T03:54:04;101377.56;;;-0.85;92.23
71043;BME280;58696;52.134;5.500;2022-12-16T03:56:32;101375.84;;;-0.84;92.49
71043;BME280;58696;52.134;5.500;2022-12-16T03:59:01;101376.53;;;-0.82;92.46
71043;BME280;58696;52.134;5.500;2022-12-16T04:01:30;101378.25;;;-0.83;92.43
71043;BME280;58696;52.134;5.500;2022-12-16T04:03:59;101386.56;;;-0.81;92.55
71043;BME280;58696;52.134;5.500;2022-12-16T04:06:25;101384.94;;;-0.82;92.51
71043;BME280;58696;52.134;5.500;2022-12-16T04:08:53;101380.72;;;-0.81;92.71
71043;BME280;58696;52.134;5.500;2022-12-16T04:11:22;101383.13;;;-0.80;92.66
71043;BME280;58696;52.134;5.500;2022-12-16T04:14:08;101387.25;;;-0.78;92.75
71043;BME280;58696;52.134;5.500;2022-12-16T04:16:54;101392.22;;;-0.77;92.84
71043;BME280;58696;52.134;5.500;2022-12-16T04:19:39;101385.53;;;-0.78;92.93
71043;BME280;58696;52.134;5.500;2022-12-16T04:22:34;101395.53;;;-0.76;92.88
71043;BME280;58696;52.134;5.500;2022-12-16T04:25:24;101392.22;;;-0.77;93.15
71043;BME280;58696;52.134;5.500;2022-12-16T04:27:56;101392.22;;;-0.77;93.13
71043;BME280;58696;52.134;5.500;2022-12-16T04:30:25;101390.50;;;-0.76;93.13
71043;BME280;58696;52.134;5.500;2022-12-16T04:32:54;101393.00;;;-0.76;93.17
71043;BME280;58696;52.134;5.500;2022-12-16T04:35:41;101394.66;;;-0.75;93.20
71043;BME280;58696;52.134;5.500;2022-12-16T04:38:29;101402.31;;;-0.77;93.21
71043;BME280;58696;52.134;5.500;2022-12-16T04:41:14;101392.31;;;-0.78;93.16
71043;BME280;58696;52.134;5.500;2022-12-16T04:44:00;101396.44;;;-0.77;93.22
71043;BME280;58696;52.134;5.500;2022-12-16T04:46:45;101405.75;;;-0.78;93.13
71043;BME280;58696;52.134;5.500;2022-12-16T04:49:31;101415.03;;;-0.78;93.22
71043;BME280;58696;52.134;5.500;2022-12-16T04:52:17;101412.50;;;-0.78;93.26
71043;BME280;58696;52.134;5.500;2022-12-16T04:55:04;101417.53;;;-0.78;93.34
71043;BME280;58696;52.134;5.500;2022-12-16T04:57:56;101414.22;;;-0.79;93.41
71043;BME280;58696;52.134;5.500;2022-12-16T05:00:45;101420.06;;;-0.78;93.33
71043;BME280;58696;52.134;5.500;2022-12-16T05:03:35;101414.31;;;-0.81;93.44
71043;BME280;58696;52.134;5.500;2022-12-16T05:06:22;101420.28;;;-0.82;93.52
71043;BME280;58696;52.134;5.500;2022-12-16T05:09:09;101418.63;;;-0.83;93.49
71043;BME280;58696;52.134;5.500;2022-12-16T05:11:55;101417.22;;;-0.87;93.40
71043;BME280;58696;52.134;5.500;2022-12-16T05:14:40;101409.81;;;-0.90;93.43
71043;BME280;58696;52.134;5.500;2022-12-16T05:17:27;101413.69;;;-0.98;93.41
71043;BME280;58696;52.134;5.500;2022-12-16T05:20:13;101410.84;;;-1.07;93.34
71043;BME280;58696;52.134;5.500;2022-12-16T05:23:01;101417.06;;;-1.12;93.29
71043;BME280;58696;52.134;5.500;2022-12-16T05:25:46;101411.66;;;-1.20;93.17
71043;BME280;58696;52.134;5.500;2022-12-16T05:28:31;101420.69;;;-1.30;93.04
71043;BME280;58696;52.134;5.500;2022-12-16T05:31:16;101427.78;;;-1.37;93.43
71043;BME280;58696;52.134;5.500;2022-12-16T05:34:02;101424.13;;;-1.46;93.19
71043;BME280;58696;52.134;5.500;2022-12-16T05:36:47;101423.63;;;-1.52;93.34
71043;BME280;58696;52.134;5.500;2022-12-16T05:39:33;101424.19;;;-1.62;93.45
71043;BME280;58696;52.134;5.500;2022-12-16T05:42:18;101434.88;;;-1.72;93.20
71043;BME280;58696;52.134;5.500;2022-12-16T05:45:03;101438.56;;;-1.78;93.47
71043;BME280;58696;52.134;5.500;2022-12-16T05:47:50;101439.72;;;-1.83;93.23
71043;BME280;58696;52.134;5.500;2022-12-16T05:50:43;101443.47;;;-1.91;93.25
71043;BME280;58696;52.134;5.500;2022-12-16T05:53:31;101441.50;;;-2.00;93.46
71043;BME280;58696;52.134;5.500;2022-12-16T05:56:17;101451.81;;;-2.04;93.47
71043;BME280;58696;52.134;5.500;2022-12-16T05:59:02;101448.50;;;-2.05;93.35
71043;BME280;58696;52.134;5.500;2022-12-16T06:01:48;101459.28;;;-2.03;93.52
71043;BME280;58696;52.134;5.500;2022-12-16T06:04:33;101455.03;;;-2.02;93.53
71043;BME280;58696;52.134;5.500;2022-12-16T06:07:18;101456.03;;;-2.05;93.63
71043;BME280;58696;52.134;5.500;2022-12-16T06:10:05;101455.56;;;-2.12;93.55
71043;BME280;58696;52.134;5.500;2022-12-16T06:12:53;101464.66;;;-2.09;93.65
71043;BME280;58696;52.134;5.500;2022-12-16T06:15:38;101464.31;;;-2.03;93.74
71043;BME280;58696;52.134;5.500;2022-12-16T06:18:29;101468.38;;;-2.00;93.87
71043;BME280;58696;52.134;5.500;2022-12-16T06:21:15;101460.56;;;-1.96;93.74
71043;BME280;58696;52.134;5.500;2022-12-16T06:24:01;101458.06;;;-1.96;93.90
71043;BME280;58696;52.134;5.500;2022-12-16T06:26:47;101464.78;;;-1.96;93.84
71043;BME280;58696;52.134;5.500;2022-12-16T06:29:32;101470.66;;;-1.96;93.90
71043;BME280;58696;52.134;5.500;2022-12-16T06:32:19;101479.06;;;-1.97;93.93
71043;BME280;58696;52.134;5.500;2022-12-16T06:35:04;101479.88;;;-1.96;93.92
71043;BME280;58696;52.134;5.500;2022-12-16T06:37:51;101485.81;;;-1.97;93.90
71043;BME280;58696;52.134;5.500;2022-12-16T06:40:37;101479.88;;;-1.96;93.80
71043;BME280;58696;52.134;5.500;2022-12-16T06:43:42;101486.06;;;-2.02;93.83
71043;BME280;58696;52.134;5.500;2022-12-16T06:46:27;101490.31;;;-2.02;93.83
71043;BME280;58696;52.134;5.500;2022-12-16T06:49:13;101491.22;;;-2.03;93.82
71043;BME280;58696;52.134;5.500;2022-12-16T06:51:58;101501.13;;;-2.00;94.06
71043;BME280;58696;52.134;5.500;2022-12-16T06:54:43;101502.00;;;-2.01;93.99
71043;BME280;58696;52.134;5.500;2022-12-16T06:57:31;101513.56;;;-2.13;93.77
71043;BME280;58696;52.134;5.500;2022-12-16T07:00:18;101515.59;;;-2.20;93.74
71043;BME280;58696;52.134;5.500;2022-12-16T07:03:03;101514.31;;;-2.27;93.87
71043;BME280;58696;52.134;5.500;2022-12-16T07:05:54;101517.63;;;-2.26;93.75
71043;BME280;58696;52.134;5.500;2022-12-16T07:08:39;101522.81;;;-2.29;93.66
71043;BME280;58696;52.134;5.500;2022-12-16T07:11:25;101530.63;;;-2.34;93.81
71043;BME280;58696;52.134;5.500;2022-12-16T07:14:10;101533.31;;;-2.37;93.82
71043;BME280;58696;52.134;5.500;2022-12-16T07:16:55;101531.75;;;-2.40;93.84
71043;BME280;58696;52.134;5.500;2022-12-16T07:19:42;101521.88;;;-2.43;93.72
71043;BME280;58696;52.134;5.500;2022-12-16T07:22:28;101530.63;;;-2.50;93.68
71043;BME280;58696;52.134;5.500;2022-12-16T07:25:28;101536.81;;;-2.55;93.56
71043;BME280;58696;52.134;5.500;2022-12-16T07:28:13;101537.75;;;-2.58;93.83
71043;BME280;58696;52.134;5.500;2022-12-16T07:31:15;101547.91;;;-2.59;93.78
71043;BME280;58696;52.134;5.500;2022-12-16T07:34:00;101561.31;;;-2.59;93.61
71043;BME280;58696;52.134;5.500;2022-12-16T07:36:46;101560.31;;;-2.56;93.92
71043;BME280;58696;52.134;5.500;2022-12-16T07:39:31;101557.56;;;-2.52;93.75
71043;BME280;58696;52.134;5.500;2022-12-16T07:42:21;101564.22;;;-2.51;93.66
71043;BME280;58696;52.134;5.500;2022-12-16T07:45:08;101561.88;;;-2.54;93.74
71043;BME280;58696;52.134;5.500;2022-12-16T07:47:54;101567.00;;;-2.55;93.64
71043;BME280;58696;52.134;5.500;2022-12-16T07:50:39;101571.28;;;-2.57;93.85
71043;BME280;58696;52.134;5.500;2022-12-16T07:53:25;101572.25;;;-2.60;93.70
71043;BME280;58696;52.134;5.500;2022-12-16T07:56:11;101572.41;;;-2.63;93.75
71043;BME280;58696;52.134;5.500;2022-12-16T07:58:57;101581.56;;;-2.62;93.82
71043;BME280;58696;52.134;5.500;2022-12-16T08:01:42;101587.69;;;-2.66;93.79
71043;BME280;58696;52.134;5.500;2022-12-16T08:04:27;101596.19;;;-2.69;93.68
71043;BME280;58696;52.134;5.500;2022-12-16T08:07:13;101600.25;;;-2.66;93.69
71043;BME280;58696;52.134;5.500;2022-12-16T08:09:58;101605.13;;;-2.63;93.55
71043;BME280;58696;52.134;5.500;2022-12-16T08:12:43;101609.03;;;-2.57;93.64
71043;BME280;58696;52.134;5.500;2022-12-16T08:15:31;101610.00;;;-2.60;93.49
71043;BME280;58696;52.134;5.500;2022-12-16T08:18:16;101620.22;;;-2.63;93.51
71043;BME280;58696;52.134;5.500;2022-12-16T08:21:03;101620.13;;;-2.61;93.22
71043;BME280;58696;52.134;5.500;2022-12-16T08:23:49;101625.81;;;-2.58;93.25
71043;BME280;58696;52.134;5.500;2022-12-16T08:26:34;101627.75;;;-2.30;93.70
71043;BME280;58696;52.134;5.500;2022-12-16T08:29:20;101629.28;;;-1.64;93.92
71043;BME280;58696;52.134;5.500;2022-12-16T08:32:11;101636.91;;;-1.50;92.53
71043;BME280;58696;52.134;5.500;2022-12-16T08:34:56;101635.38;;;-0.92;92.81
71043;BME280;58696;52.134;5.500;2022-12-16T08:37:47;101636.31;;;-1.09;91.34
71043;BME280;58696;52.134;5.500;2022-12-16T08:40:43;101645.63;;;-0.95;91.34
71043;BME280;58696;52.134;5.500;2022-12-16T08:43:33;101651.13;;;-0.89;91.25
71043;BME280;58696;52.134;5.500;2022-12-16T08:46:20;101645.38;;;-0.05;91.36
71043;BME280;58696;52.134;5.500;2022-12-16T08:49:05;101652.06;;;1.02;89.19
71043;BME280;58696;52.134;5.500;2022-12-16T08:51:51;101654.69;;;1.14;86.48
71043;BME280;58696;52.134;5.500;2022-12-16T08:54:36;101652.88;;;0.23;86.48
71043;BME280;58696;52.134;5.500;2022-12-16T08:57:21;101660.38;;;-0.16;88.11
71043;BME280;58696;52.134;5.500;2022-12-16T09:00:07;101655.53;;;0.08;88.17
71043;BME280;58696;52.134;5.500;2022-12-16T09:02:57;101670.16;;;-0.12;88.55
71043;BME280;58696;52.134;5.500;2022-12-16T09:05:43;101670.53;;;-0.04;88.87
71043;BME280;58696;52.134;5.500;2022-12-16T09:08:29;101673.16;;;0.36;88.36
71043;BME280;58696;52.134;5.500;2022-12-16T09:11:14;101672.47;;;0.74;87.24
71043;BME280;58696;52.134;5.500;2022-12-16T09:14:00;101672.63;;;0.98;86.40
71043;BME280;58696;52.134;5.500;2022-12-16T09:16:45;101670.88;;;0.86;86.26
71043;BME280;58696;52.134;5.500;2022-12-16T09:19:31;101676.16;;;1.08;86.41
71043;BME280;58696;52.134;5.500;2022-12-16T09:22:19;101684.00;;;2.05;84.91
71043;BME280;58696;52.134;5.500;2022-12-16T09:25:06;101686.38;;;1.96;82.60
71043;BME280;58696;52.134;5.500;2022-12-16T09:27:51;101686.31;;;1.46;83.14
71043;BME280;58696;52.134;5.500;2022-12-16T09:30:37;101687.13;;;1.60;83.88
71043;BME280;58696;52.134;5.500;2022-12-16T09:33:33;101691.47;;;1.70;82.64
71043;BME280;58696;52.134;5.500;2022-12-16T09:36:18;101696.44;;;1.72;82.92
71043;BME280;58696;52.134;5.500;2022-12-16T09:39:04;101697.84;;;1.76;83.88
71043;BME280;58696;52.134;5.500;2022-12-16T09:45:22;101703.00;;;2.96;77.24
71043;BME280;58696;52.134;5.500;2022-12-16T09:51:04;101703.91;;;3.86;76.88
71043;BME280;58696;52.134;5.500;2022-12-16T09:53:53;101721.91;;;4.28;74.66
71043;BME280;58696;52.134;5.500;2022-12-16T09:56:41;101718.75;;;4.46;73.52
71043;BME280;58696;52.134;5.500;2022-12-16T09:59:30;101718.81;;;3.90;73.52
71043;BME280;58696;52.134;5.500;2022-12-16T10:02:19;101723.81;;;3.81;74.92
71043;BME280;58696;52.134;5.500;2022-12-16T10:05:10;101722.75;;;3.83;73.70
71043;BME280;58696;52.134;5.500;2022-12-16T10:08:07;101723.69;;;3.82;75.58
71043;BME280;58696;52.134;5.500;2022-12-16T10:11:10;101731.53;;;4.24;73.85
71043;BME280;58696;52.134;5.500;2022-12-16T10:14:13;101726.44;;;3.57;75.12
71043;BME280;58696;52.134;5.500;2022-12-16T10:17:11;101731.97;;;4.18;74.68
71043;BME280;58696;52.134;5.500;2022-12-16T10:20:05;101736.28;;;3.61;74.49
71043;BME280;58696;52.134;5.500;2022-12-16T10:25:45;101738.56;;;2.96;77.30
71043;BME280;58696;52.134;5.500;2022-12-16T10:28:47;101740.72;;;2.65;78.49
71043;BME280;58696;52.134;5.500;2022-12-16T10:31:35;101745.78;;;2.65;78.96
71043;BME280;58696;52.134;5.500;2022-12-16T10:34:29;101746.06;;;2.73;79.37
71043;BME280;58696;52.134;5.500;2022-12-16T10:37:29;101741.81;;;2.74;79.59
71043;BME280;58696;52.134;5.500;2022-12-16T10:40:18;101741.84;;;2.85;79.37
71043;BME280;58696;52.134;5.500;2022-12-16T10:43:20;101741.19;;;2.70;79.45
71043;BME280;58696;52.134;5.500;2022-12-16T10:46:12;101748.75;;;2.59;79.97
71043;BME280;58696;52.134;5.500;2022-12-16T10:49:01;101747.03;;;2.35;80.79
71043;BME280;58696;52.134;5.500;2022-12-16T10:51:47;101747.16;;;2.21;81.38
71043;BME280;58696;52.134;5.500;2022-12-16T10:54:39;101746.03;;;2.25;82.06
71043;BME280;58696;52.134;5.500;2022-12-16T10:57:44;101745.56;;;2.92;80.89
71043;BME280;58696;52.134;5.500;2022-12-16T11:00:46;101746.63;;;3.36;79.59
71043;BME280;58696;52.134;5.500;2022-12-16T11:03:35;101743.16;;;2.90;79.79
71043;BME280;58696;52.134;5.500;2022-12-16T11:09:19;101745.22;;;2.61;80.56
71043;BME280;58696;52.134;5.500;2022-12-16T11:12:28;101743.94;;;2.43;81.14
71043;BME280;58696;52.134;5.500;2022-12-16T11:18:18;101745.34;;;2.10;82.22
71043;BME280;58696;52.134;5.500;2022-12-16T11:24:13;101757.44;;;1.94;83.14
71043;BME280;58696;52.134;5.500;2022-12-16T11:27:01;101754.41;;;1.89;83.47
71043;BME280;58696;52.134;5.500;2022-12-16T11:30:11;101760.19;;;1.78;83.61
71043;BME280;58696;52.134;5.500;2022-12-16T11:33:05;101769.72;;;1.75;84.07
71043;BME280;58696;52.134;5.500;2022-12-16T11:36:02;101765.97;;;1.68;84.33
71043;BME280;58696;52.134;5.500;2022-12-16T11:38:51;101766.28;;;1.63;84.88
71043;BME280;58696;52.134;5.500;2022-12-16T11:41:46;101773.97;;;1.62;84.68
71043;BME280;58696;52.134;5.500;2022-12-16T11:44:47;101769.00;;;1.60;84.91
71043;BME280;58696;52.134;5.500;2022-12-16T11:47:38;101780.97;;;1.58;85.02
71043;BME280;58696;52.134;5.500;2022-12-16T11:50:33;101774.47;;;1.54;84.92
71043;BME280;58696;52.134;5.500;2022-12-16T11:56:41;101775.69;;;1.48;85.62
71043;BME280;58696;52.134;5.500;2022-12-16T11:59:52;101781.56;;;1.49;85.91
71043;BME280;58696;52.134;5.500;2022-12-16T12:06:57;101780.84;;;1.47;85.96
71043;BME280;58696;52.134;5.500;2022-12-16T12:09:37;101778.22;;;1.48;86.13
71043;BME280;58696;52.134;5.500;2022-12-16T12:12:40;101785.72;;;1.50;86.29
71043;BME280;58696;52.134;5.500;2022-12-16T12:15:49;101781.56;;;1.49;86.15
71043;BME280;58696;52.134;5.500;2022-12-16T12:18:45;101777.19;;;1.51;86.34
71043;BME280;58696;52.134;5.500;2022-12-16T12:21:58;101787.25;;;1.52;86.43
71043;BME280;58696;52.134;5.500;2022-12-16T12:25:00;101785.59;;;1.51;86.51
71043;BME280;58696;52.134;5.500;2022-12-16T12:28:18;101790.78;;;1.50;86.74
71043;BME280;58696;52.134;5.500;2022-12-16T12:34:35;101792.38;;;1.51;86.68
71043;BME280;58696;52.134;5.500;2022-12-16T12:37:55;101795.84;;;1.50;86.74
71043;BME280;58696;52.134;5.500;2022-12-16T12:46:49;101810.34;;;1.48;86.88
71043;BME280;58696;52.134;5.500;2022-12-16T12:49:50;101815.28;;;1.49;87.03
71043;BME280;58696;52.134;5.500;2022-12-16T12:59:24;101803.25;;;1.53;87.17
71043;BME280;58696;52.134;5.500;2022-12-16T13:02:17;101809.13;;;1.53;87.11
71043;BME280;58696;52.134;5.500;2022-12-16T13:05:11;101819.25;;;1.53;87.24
71043;BME280;58696;52.134;5.500;2022-12-16T13:11:16;101816.50;;;1.56;87.27
71043;BME280;58696;52.134;5.500;2022-12-16T13:17:22;101825.53;;;1.61;87.40
71043;BME280;58696;52.134;5.500;2022-12-16T13:23:38;101828.09;;;1.61;87.35
71043;BME280;58696;52.134;5.500;2022-12-16T13:26:28;101835.56;;;1.62;87.36
71043;BME280;58696;52.134;5.500;2022-12-16T13:29:21;101838.72;;;1.66;87.53
71043;BME280;58696;52.134;5.500;2022-12-16T13:37:52;101831.13;;;1.66;87.58
71043;BME280;58696;52.134;5.500;2022-12-16T13:41:04;101839.53;;;1.66;87.56
71043;BME280;58696;52.134;5.500;2022-12-16T13:55:54;101845.31;;;1.68;87.48
71043;BME280;58696;52.134;5.500;2022-12-16T13:58:46;101846.44;;;1.64;87.34
71043;BME280;58696;52.134;5.500;2022-12-16T14:04:34;101855.25;;;1.58;87.40
71043;BME280;58696;52.134;5.500;2022-12-16T14:07:23;101857.25;;;1.53;87.37
71043;BME280;58696;52.134;5.500;2022-12-16T14:10:27;101865.78;;;1.52;87.56
71043;BME280;58696;52.134;5.500;2022-12-16T14:13:30;101861.69;;;1.50;87.59
71043;BME280;58696;52.134;5.500;2022-12-16T14:16:34;101873.66;;;1.48;87.64
71043;BME280;58696;52.134;5.500;2022-12-16T14:19:45;101877.09;;;1.47;87.80
71043;BME280;58696;52.134;5.500;2022-12-16T14:25:22;101891.84;;;1.40;87.85
71043;BME280;58696;52.134;5.500;2022-12-16T14:34:21;101891.34;;;1.35;87.85
71043;BME280;58696;52.134;5.500;2022-12-16T14:37:21;101900.03;;;1.31;87.83
71043;BME280;58696;52.134;5.500;2022-12-16T14:40:28;101899.31;;;1.29;88.16
71043;BME280;58696;52.134;5.500;2022-12-16T14:43:19;101911.91;;;1.30;88.06
71043;BME280;58696;52.134;5.500;2022-12-16T14:49:17;101913.69;;;1.28;88.22
71043;BME280;58696;52.134;5.500;2022-12-16T14:52:15;101919.66;;;1.27;88.31
71043;BME280;58696;52.134;5.500;2022-12-16T14:55:27;101933.25;;;1.26;88.43
71043;BME280;58696;52.134;5.500;2022-12-16T14:58:13;101941.13;;;1.22;88.35
71043;BME280;58696;52.134;5.500;2022-12-16T15:01:13;101942.84;;;1.21;88.60
71043;BME280;58696;52.134;5.500;2022-12-16T15:04:01;101948.88;;;1.19;88.46
71043;BME280;58696;52.134;5.500;2022-12-16T15:06:49;101950.72;;;1.17;88.61
71043;BME280;58696;52.134;5.500;2022-12-16T15:09:39;101949.09;;;1.16;88.63
71043;BME280;58696;52.134;5.500;2022-12-16T15:12:28;101957.59;;;1.15;88.73
71043;BME280;58696;52.134;5.500;2022-12-16T15:15:21;101960.94;;;1.15;88.70
71043;BME280;58696;52.134;5.500;2022-12-16T15:18:16;101967.63;;;1.16;88.72
71043;BME280;58696;52.134;5.500;2022-12-16T15:21:05;101969.44;;;1.14;88.87
71043;BME280;58696;52.134;5.500;2022-12-16T15:23:51;101967.91;;;1.12;88.87
71043;BME280;58696;52.134;5.500;2022-12-16T15:26:37;101975.75;;;1.07;88.79
71043;BME280;58696;52.134;5.500;2022-12-16T15:29:41;101972.91;;;0.99;88.94
71043;BME280;58696;52.134;5.500;2022-12-16T15:35:31;101981.66;;;0.93;89.03
71043;BME280;58696;52.134;5.500;2022-12-16T15:38:28;101987.00;;;0.89;89.21
71043;BME280;58696;52.134;5.500;2022-12-16T15:41:29;101991.31;;;0.87;89.14
71043;BME280;58696;52.134;5.500;2022-12-16T15:44:25;101991.50;;;0.84;89.33
71043;BME280;58696;52.134;5.500;2022-12-16T15:47:20;101994.94;;;0.83;89.36
71043;BME280;58696;52.134;5.500;2022-12-16T15:50:09;101997.75;;;0.78;89.34
71043;BME280;58696;52.134;5.500;2022-12-16T15:53:59;102011.31;;;0.77;89.52
71043;BME280;58696;52.134;5.500;2022-12-16T15:56:24;102003.06;;;0.73;89.47
71043;BME280;58696;52.134;5.500;2022-12-16T15:59:17;102019.97;;;0.73;89.65
71043;BME280;58696;52.134;5.500;2022-12-16T16:02:14;102022.50;;;0.73;89.72
71043;BME280;58696;52.134;5.500;2022-12-16T16:05:00;102023.41;;;0.72;89.74
71043;BME280;58696;52.134;5.500;2022-12-16T16:07:46;102031.81;;;0.72;89.69